Terminal Aerodrome Forecast
Issued by NWS

Home | Current Version | Previous Version | Text Only | Print | Product List | Glossary On
Versions: 1 2 3 4 5 6 7 8 9 10 11 12 13 14 15 16 17 18 19 20 21 22 23
000
FTUS46 KSEW 300305 AAA
TAFHQM
TAF AMD
KHQM 300305Z 3003/3024 16012KT P6SM -SHRA SCT025 BKN045 OVC070
     FM300900 19010KT P6SM -SHRA BKN025 OVC045
     FM302000 21015G25KT P6SM BKN030 OVC080=

USA.gov is the U.S. government's official web portal to all federal, state and local government web resources and services.